Time;durP1;ratioP1;P1;durP2;ratioP2;P2;SDS_P1;SDS_P2;PMS_P1;PMS_P2;Temp;Humidity;BMP_temperature;BMP_pressure;BME280_temperature;BME280_humidity;BME280_pressure;Samples;Min_cycle;Max_cycle;Signal;HPM_P1;HPM_P2
2023/08/24 00:00:16;;;;;;;;;;;;;;;28.68;36.27;99485.63;5071403;28;20007;-79
2023/08/24 00:02:41;;;;;;;;;;;;;;;28.67;37.01;99494.06;5071260;28;19913;-80
2023/08/24 00:05:07;;;;;;;;;;;;;;;28.63;36.81;99488.44;5053804;28;19916;-77
2023/08/24 00:07:32;;;;;;;;;;;;;;;28.58;36.93;99490.44;5074790;28;19934;-80
2023/08/24 00:09:57;;;;;;;;;;;;;;;28.52;36.77;99487.00;5074665;28;19912;-80
2023/08/24 00:12:23;;;;;;;;;;;;;;;28.44;37.26;99488.47;5074504;28;20320;-80
2023/08/24 00:14:48;;;;;;;;;;;;;;;28.38;37.10;99484.25;5074432;28;20377;-78
2023/08/24 00:17:14;;;;;;;;;;;;;;;28.34;36.95;99479.69;5074306;28;19916;-80
2023/08/24 00:19:40;;;;;;;;;;;;;;;28.29;37.21;99477.88;5056342;28;19913;-80
2023/08/24 00:22:05;;;;;;;;;;;;;;;28.24;37.16;99475.25;5074472;28;19970;-80
2023/08/24 00:24:30;;;;;;;;;;;;;;;28.27;36.97;99473.84;5074326;28;19912;-77
2023/08/24 00:26:55;;;;;;;;;;;;;;;28.28;36.91;99472.72;5074344;28;19912;-78
2023/08/24 00:29:21;;;;;;;;;;;;;;;28.24;36.83;99475.25;5074297;28;19912;-80
2023/08/24 00:31:47;;;;;;;;;;;;;;;28.23;37.32;99483.63;5074267;28;19978;-80
2023/08/24 00:34:12;;;;;;;;;;;;;;;28.23;37.17;99473.59;5074226;28;19944;-79
2023/08/24 00:36:37;;;;;;;;;;;;;;;28.20;36.88;99479.59;5073970;28;20377;-79
2023/08/24 00:39:03;;;;;;;;;;;;;;;28.16;37.35;99471.22;5073980;28;19912;-79
2023/08/24 00:41:28;;;;;;;;;;;;;;;28.12;36.87;99482.97;5073922;28;19919;-79
2023/08/24 00:43:53;;;;;;;;;;;;;;;28.08;37.17;99476.53;5073956;28;20290;-79
2023/08/24 00:46:19;;;;;;;;;;;;;;;28.05;37.34;99480.63;5073821;28;19912;-79
2023/08/24 00:48:44;;;;;;;;;;;;;;;28.04;37.03;99475.50;5073623;28;20326;-80
2023/08/24 00:51:09;;;;;;;;;;;;;;;28.03;37.00;99482.03;5073786;28;20401;-78
2023/08/24 00:53:36;;;;;;;;;;;;;;;28.00;37.53;99488.03;5055635;28;20296;-78
2023/08/24 00:56:02;;;;;;;;;;;;;;;27.97;37.52;99494.06;5073684;28;19923;-79
2023/08/24 00:58:28;;;;;;;;;;;;;;;27.93;37.80;99495.75;5073798;28;19912;-80
2023/08/24 01:00:53;;;;;;;;;;;;;;;27.88;37.95;99484.97;5073580;28;19964;-80
2023/08/24 01:03:19;;;;;;;;;;;;;;;27.84;38.22;99487.47;5073501;28;19947;-78
2023/08/24 01:05:45;;;;;;;;;;;;;;;27.80;38.00;99495.38;5055461;28;19912;-79
2023/08/24 01:08:11;;;;;;;;;;;;;;;27.78;38.25;99488.63;5073672;28;19912;-79
2023/08/24 01:10:45;;;;;;;;;;;;;;;27.78;38.28;99491.34;5073348;28;20383;-78
2023/08/24 01:13:15;;;;;;;;;;;;;;;27.76;37.70;99486.22;5073037;28;19995;-80
2023/08/24 01:15:43;;;;;;;;;;;;;;;27.76;37.63;99488.91;5073134;28;20027;-79
2023/08/24 01:18:10;;;;;;;;;;;;;;;27.73;38.13;99494.94;5072268;28;20388;-80
2023/08/24 01:20:37;;;;;;;;;;;;;;;27.72;38.14;99484.38;5073178;28;19920;-79
2023/08/24 01:23:05;;;;;;;;;;;;;;;27.70;39.17;99486.56;5073224;28;20389;-79
2023/08/24 01:25:54;;;;;;;;;;;;;;;27.60;38.48;99482.06;5073099;28;19970;-80
2023/08/24 01:28:23;;;;;;;;;;;;;;;27.43;39.16;99479.81;5055031;28;19923;-79
2023/08/24 01:30:49;;;;;;;;;;;;;;;27.33;39.14;99481.84;5072993;28;19918;-78
2023/08/24 01:33:14;;;;;;;;;;;;;;;27.24;38.58;99476.25;5073024;28;19908;-79
2023/08/24 01:35:40;;;;;;;;;;;;;;;27.16;40.14;99482.31;5072913;28;19916;-78
2023/08/24 01:38:06;;;;;;;;;;;;;;;27.07;39.81;99478.63;5073049;28;20007;-78
2023/08/24 01:40:31;;;;;;;;;;;;;;;26.96;39.87;99477.88;5073235;28;20393;-80
2023/08/24 01:43:03;;;;;;;;;;;;;;;26.89;39.53;99470.09;5072860;28;19920;-79
2023/08/24 01:45:29;;;;;;;;;;;;;;;26.88;39.72;99462.25;5072961;28;20355;-79
2023/08/24 01:47:55;;;;;;;;;;;;;;;26.86;40.05;99472.56;5073139;28;20305;-78
2023/08/24 01:50:21;;;;;;;;;;;;;;;26.78;39.51;99457.75;5072738;28;19912;-79
2023/08/24 01:52:47;;;;;;;;;;;;;;;26.72;40.03;99458.06;5072570;28;19938;-79
2023/08/24 01:55:12;;;;;;;;;;;;;;;26.67;40.49;99452.69;5072499;28;19924;-80
2023/08/24 01:57:38;;;;;;;;;;;;;;;26.64;40.59;99458.69;5072724;28;20357;-78
2023/08/24 02:00:06;;;;;;;;;;;;;;;26.61;40.50;99465.47;5072376;28;19927;-79
2023/08/24 02:02:33;;;;;;;;;;;;;;;26.58;39.28;99456.03;5072482;28;19912;-78
2023/08/24 02:04:58;;;;;;;;;;;;;;;26.52;40.24;99454.47;5080021;28;19970;-79
2023/08/24 02:07:23;;;;;;;;;;;;;;;26.46;41.08;99460.22;5083679;28;19962;-79
2023/08/24 02:09:48;;;;;;;;;;;;;;;26.39;40.58;99457.81;5073478;28;20392;-78
2023/08/24 02:12:14;;;;;;;;;;;;;;;26.34;40.47;99463.28;5055205;28;20010;-79
2023/08/24 02:14:39;;;;;;;;;;;;;;;26.30;40.38;99467.63;5073085;28;19919;-79
2023/08/24 02:17:04;;;;;;;;;;;;;;;26.26;40.23;99464.66;5072738;28;20017;-79
2023/08/24 02:19:29;;;;;;;;;;;;;;;26.14;40.64;99452.59;5054689;28;19919;-79
2023/08/24 02:21:55;;;;;;;;;;;;;;;26.12;40.59;99455.59;5072594;28;19992;-78
2023/08/24 02:24:20;;;;;;;;;;;;;;;26.18;41.35;99459.06;5072624;28;19912;-79
2023/08/24 02:26:45;;;;;;;;;;;;;;;26.25;40.36;99462.25;5072671;28;19912;-79
2023/08/24 02:29:10;;;;;;;;;;;;;;;26.26;41.15;99470.09;5061527;28;19913;-78
2023/08/24 02:31:36;;;;;;;;;;;;;;;26.20;41.44;99473.13;5066488;28;19912;-79
2023/08/24 02:34:02;;;;;;;;;;;;;;;26.14;40.93;99471.53;5072556;28;19913;-79
2023/08/24 02:36:28;;;;;;;;;;;;;;;26.08;40.50;99462.66;5072472;28;20359;-79
2023/08/24 02:38:53;;;;;;;;;;;;;;;26.00;41.33;99460.50;5071856;28;19916;-79
2023/08/24 02:41:19;;;;;;;;;;;;;;;25.98;41.58;99457.28;5071914;28;19913;-79
2023/08/24 02:43:44;;;;;;;;;;;;;;;26.00;41.08;99457.81;5071911;28;19947;-79
2023/08/24 02:46:10;;;;;;;;;;;;;;;25.96;41.51;99452.16;5072234;28;19916;-79
2023/08/24 02:48:35;;;;;;;;;;;;;;;25.96;42.02;99462.97;5071747;28;19920;-79
2023/08/24 02:51:02;;;;;;;;;;;;;;;25.96;41.48;99454.03;5071584;28;19912;-79
2023/08/24 02:53:28;;;;;;;;;;;;;;;25.97;41.01;99456.47;5071501;28;19912;-79
2023/08/24 02:55:53;;;;;;;;;;;;;;;25.93;40.89;99455.41;5071453;28;19973;-79
2023/08/24 02:58:19;;;;;;;;;;;;;;;25.93;40.86;99454.59;5071538;28;19916;-78
2023/08/24 03:00:44;;;;;;;;;;;;;;;25.87;41.38;99461.13;5071296;28;19956;-79
2023/08/24 03:03:09;;;;;;;;;;;;;;;25.81;41.67;99460.38;5071564;28;19977;-79
2023/08/24 03:05:35;;;;;;;;;;;;;;;25.78;40.34;99460.94;5071512;28;19923;-79
2023/08/24 03:08:00;;;;;;;;;;;;;;;25.64;41.65;99460.72;5071685;28;19913;-79
2023/08/24 03:10:25;;;;;;;;;;;;;;;25.61;41.72;99458.56;5071467;28;20444;-78
2023/08/24 03:12:51;;;;;;;;;;;;;;;25.62;41.78;99465.59;5071297;28;20355;-78
2023/08/24 03:15:16;;;;;;;;;;;;;;;25.57;42.09;99462.09;5071565;28;19923;-78
2023/08/24 03:17:42;;;;;;;;;;;;;;;25.54;41.91;99466.16;5071605;28;19912;-78
2023/08/24 03:20:07;;;;;;;;;;;;;;;25.59;41.23;99462.63;5071531;28;19913;-79
2023/08/24 03:22:33;;;;;;;;;;;;;;;25.60;41.75;99469.66;5071534;28;19966;-79
2023/08/24 03:24:58;;;;;;;;;;;;;;;25.57;42.29;99471.03;5071523;28;19919;-79
2023/08/24 03:27:23;;;;;;;;;;;;;;;25.55;41.81;99473.19;5071805;28;19965;-79
2023/08/24 03:29:48;;;;;;;;;;;;;;;25.53;42.05;99467.25;5071366;28;19913;-79
2023/08/24 03:32:14;;;;;;;;;;;;;;;25.50;42.40;99467.00;5071417;28;19919;-78
2023/08/24 03:34:40;;;;;;;;;;;;;;;25.44;42.49;99463.50;5071287;28;20389;-79
2023/08/24 03:37:05;;;;;;;;;;;;;;;25.42;41.41;99475.69;5071186;28;19920;-79
2023/08/24 03:39:30;;;;;;;;;;;;;;;25.39;42.20;99474.34;5071136;28;20389;-79
2023/08/24 03:41:56;;;;;;;;;;;;;;;25.39;43.29;99482.47;5074584;28;20009;-79
2023/08/24 03:44:21;;;;;;;;;;;;;;;25.40;41.45;99480.56;5075064;28;19912;-79
2023/08/24 03:46:46;;;;;;;;;;;;;;;25.38;42.50;99480.84;5074892;28;19919;-79
2023/08/24 03:49:12;;;;;;;;;;;;;;;25.36;42.51;99483.00;5074688;28;20462;-79
2023/08/24 03:51:37;;;;;;;;;;;;;;;25.33;42.87;99491.66;5074810;28;19912;-79
2023/08/24 03:54:03;;;;;;;;;;;;;;;25.29;43.34;99491.41;5075223;28;19916;-79
2023/08/24 03:56:28;;;;;;;;;;;;;;;25.30;43.02;99494.94;5075123;28;19948;-79
2023/08/24 03:58:53;;;;;;;;;;;;;;;25.26;43.86;99505.44;5075106;28;19977;-79
2023/08/24 04:01:18;;;;;;;;;;;;;;;25.27;42.15;99498.19;5074948;28;19970;-79
2023/08/24 04:03:44;;;;;;;;;;;;;;;25.23;42.17;99494.38;5075085;28;19923;-79
2023/08/24 04:06:11;;;;;;;;;;;;;;;25.19;42.60;99491.41;5074793;28;20475;-79
2023/08/24 04:08:36;;;;;;;;;;;;;;;25.15;42.58;99486.84;5075274;28;19919;-79
2023/08/24 04:11:01;;;;;;;;;;;;;;;25.16;42.14;99489.25;5075072;28;19963;-79
2023/08/24 04:13:27;;;;;;;;;;;;;;;25.16;42.31;99488.47;5074872;28;19918;-79
2023/08/24 04:15:52;;;;;;;;;;;;;;;25.20;42.83;99489.53;5074797;28;19917;-79
2023/08/24 04:18:17;;;;;;;;;;;;;;;25.25;41.88;99487.63;5074646;28;19913;-79
2023/08/24 04:20:42;;;;;;;;;;;;;;;25.21;42.22;99488.44;5074923;28;19912;-79
2023/08/24 04:23:08;;;;;;;;;;;;;;;25.20;42.87;99492.22;5074465;28;19920;-79
2023/08/24 04:25:33;;;;;;;;;;;;;;;25.17;42.51;99493.59;5074556;28;19916;-79
2023/08/24 04:27:58;;;;;;;;;;;;;;;25.15;42.44;99498.47;5074278;28;19904;-79
2023/08/24 04:30:23;;;;;;;;;;;;;;;25.13;42.55;99497.91;5074996;28;20293;-78
2023/08/24 04:32:49;;;;;;;;;;;;;;;25.18;42.70;99500.59;5074752;28;19919;-78
2023/08/24 04:35:14;;;;;;;;;;;;;;;25.24;42.22;99501.41;5056713;28;19920;-79
2023/08/24 04:37:40;;;;;;;;;;;;;;;25.25;42.65;99495.72;5074537;28;19995;-79
2023/08/24 04:40:07;;;;;;;;;;;;;;;25.25;42.45;99492.22;5074481;28;20367;-79
2023/08/24 04:42:32;;;;;;;;;;;;;;;25.29;42.88;99493.31;5074564;28;20462;-79
2023/08/24 04:44:57;;;;;;;;;;;;;;;25.30;42.24;99497.63;5074539;28;19916;-79
2023/08/24 04:47:23;;;;;;;;;;;;;;;25.32;42.60;99495.47;5074425;28;19951;-79
2023/08/24 04:49:48;;;;;;;;;;;;;;;25.33;43.51;99502.47;5074154;28;19970;-79
2023/08/24 04:52:14;;;;;;;;;;;;;;;25.39;41.82;99506.78;5073827;28;19968;-79
2023/08/24 04:54:39;;;;;;;;;;;;;;;25.33;43.03;99506.00;5073473;28;19912;-79
2023/08/24 04:57:04;;;;;;;;;;;;;;;25.34;43.12;99504.09;5073650;28;20007;-79
2023/08/24 04:59:30;;;;;;;;;;;;;;;25.42;42.87;99505.41;5073416;28;20392;-79
2023/08/24 05:01:56;;;;;;;;;;;;;;;25.50;42.16;99499.44;5073405;28;19955;-79
2023/08/24 05:04:21;;;;;;;;;;;;;;;25.54;41.57;99497.81;5073650;28;20362;-79
2023/08/24 05:06:46;;;;;;;;;;;;;;;25.60;42.01;99507.50;5073298;28;19919;-79
2023/08/24 05:09:12;;;;;;;;;;;;;;;25.65;42.58;99504.78;5073756;28;19913;-80
2023/08/24 05:11:37;;;;;;;;;;;;;;;25.64;42.13;99505.88;5073266;28;19912;-78
2023/08/24 05:14:02;;;;;;;;;;;;;;;25.71;42.74;99506.41;5073131;28;19919;-79
2023/08/24 05:16:28;;;;;;;;;;;;;;;25.74;42.67;99511.25;5073113;28;20407;-79
2023/08/24 05:18:53;;;;;;;;;;;;;;;25.87;42.38;99507.13;5073112;28;19912;-79
2023/08/24 05:21:18;;;;;;;;;;;;;;;26.04;41.79;99506.78;5073056;28;19966;-80
2023/08/24 05:23:43;;;;;;;;;;;;;;;26.13;41.89;99505.09;5073277;28;19956;-79
2023/08/24 05:26:09;;;;;;;;;;;;;;;26.28;41.41;99500.38;5073116;28;20409;-79
2023/08/24 05:28:34;;;;;;;;;;;;;;;26.43;41.01;99517.63;5073148;28;20372;-79
2023/08/24 05:30:59;;;;;;;;;;;;;;;26.53;41.44;99512.13;5055329;28;19916;-80
2023/08/24 05:33:26;;;;;;;;;;;;;;;26.63;40.94;99506.63;5072739;28;19934;-79
2023/08/24 05:35:52;;;;;;;;;;;;;;;26.73;41.38;99503.00;5054752;28;19917;-80
2023/08/24 05:38:17;;;;;;;;;;;;;;;26.82;40.77;99504.84;5054939;28;20456;-78
2023/08/24 05:40:43;;;;;;;;;;;;;;;26.88;40.73;99502.91;5060114;28;19940;-79
2023/08/24 05:43:09;;;;;;;;;;;;;;;26.97;41.09;99512.03;5062090;28;20412;-79
2023/08/24 05:45:34;;;;;;;;;;;;;;;27.06;40.75;99510.34;5072815;28;19944;-79
2023/08/24 05:48:00;;;;;;;;;;;;;;;27.15;41.04;99514.03;5072799;28;19951;-79
2023/08/24 05:50:25;;;;;;;;;;;;;;;27.20;40.75;99515.88;5054662;28;19912;-78
2023/08/24 05:52:50;;;;;;;;;;;;;;;27.28;40.75;99517.13;5077361;28;19919;-79
2023/08/24 05:55:15;;;;;;;;;;;;;;;27.34;40.29;99505.13;5073295;28;20389;-78
2023/08/24 05:57:41;;;;;;;;;;;;;;;27.44;40.11;99505.81;5073936;28;19919;-80
2023/08/24 06:00:09;;;;;;;;;;;;;;;27.52;39.98;99509.84;5090163;28;19924;-77
2023/08/24 06:02:37;;;;;;;;;;;;;;;27.62;39.91;99508.91;5092163;28;19915;-80
2023/08/24 06:05:03;;;;;;;;;;;;;;;27.68;39.40;99507.75;5092420;28;19916;-79
2023/08/24 06:07:29;;;;;;;;;;;;;;;27.77;39.47;99506.81;5090728;28;19923;-78
2023/08/24 06:09:54;;;;;;;;;;;;;;;27.80;39.27;99500.81;5087195;28;19970;-80
2023/08/24 06:12:19;;;;;;;;;;;;;;;27.88;39.67;99512.09;5091555;28;19916;-78
2023/08/24 06:14:44;;;;;;;;;;;;;;;27.98;40.01;99504.63;5090251;28;20376;-78
2023/08/24 06:17:10;;;;;;;;;;;;;;;28.06;39.02;99501.25;5072758;28;19917;-77
2023/08/24 06:19:35;;;;;;;;;;;;;;;28.15;39.75;99504.91;5072098;28;19951;-79
2023/08/24 06:22:00;;;;;;;;;;;;;;;28.21;38.92;99504.81;5054107;28;20290;-79
2023/08/24 06:24:25;;;;;;;;;;;;;;;28.23;38.84;99502.63;5071841;28;19912;-79
2023/08/24 06:26:51;;;;;;;;;;;;;;;28.23;39.28;99499.91;5073065;28;20003;-78
2023/08/24 06:29:16;;;;;;;;;;;;;;;28.24;38.97;99499.69;5071790;28;19917;-79
2023/08/24 06:31:42;;;;;;;;;;;;;;;28.30;39.26;99509.34;5075358;28;20397;-78
2023/08/24 06:34:07;;;;;;;;;;;;;;;28.35;38.79;99506.56;5064301;28;19916;-79
2023/08/24 06:36:32;;;;;;;;;;;;;;;28.44;38.77;99512.94;5091730;28;19916;-78
2023/08/24 06:38:58;;;;;;;;;;;;;;;28.55;38.45;99523.63;5056073;28;20053;-78
2023/08/24 06:41:24;;;;;;;;;;;;;;;28.63;38.53;99509.34;5071571;28;19912;-78
2023/08/24 06:43:49;;;;;;;;;;;;;;;28.71;38.31;99517.63;5075859;28;19924;-80
2023/08/24 06:46:14;;;;;;;;;;;;;;;28.81;38.31;99513.94;5080431;28;20407;-77
2023/08/24 06:48:41;;;;;;;;;;;;;;;28.86;38.02;99515.78;5084073;28;19916;-78
2023/08/24 06:51:07;;;;;;;;;;;;;;;28.91;37.62;99511.06;5091313;28;20364;-77
2023/08/24 06:53:32;;;;;;;;;;;;;;;28.98;37.42;99507.94;5077606;28;19916;-77
2023/08/24 06:55:58;;;;;;;;;;;;;;;29.04;37.50;99515.75;5068391;28;19971;-79
2023/08/24 06:58:23;;;;;;;;;;;;;;;29.10;37.57;99519.16;5091027;28;19938;-79
2023/08/24 07:00:50;;;;;;;;;;;;;;;29.12;37.89;99516.16;5054759;28;19974;-79
2023/08/24 07:03:16;;;;;;;;;;;;;;;29.17;37.05;99518.78;5088828;28;19922;-79
2023/08/24 07:05:42;;;;;;;;;;;;;;;29.20;37.53;99523.59;5072860;28;19912;-79
2023/08/24 07:08:07;;;;;;;;;;;;;;;29.19;37.19;99524.72;5091111;28;19923;-79
2023/08/24 07:10:32;;;;;;;;;;;;;;;29.23;37.21;99517.56;5082739;28;19912;-80
2023/08/24 07:12:58;;;;;;;;;;;;;;;29.29;36.68;99505.47;5081614;28;19916;-79
2023/08/24 07:15:23;;;;;;;;;;;;;;;29.37;36.78;99508.28;5085537;28;19965;-79
2023/08/24 07:17:48;;;;;;;;;;;;;;;29.45;36.80;99509.53;5095399;28;19927;-79
2023/08/24 07:20:14;;;;;;;;;;;;;;;29.55;36.52;99503.06;5095096;28;19916;-79
2023/08/24 07:22:39;;;;;;;;;;;;;;;29.62;36.39;99511.63;5091659;28;19916;-80
2023/08/24 07:25:05;;;;;;;;;;;;;;;29.71;36.46;99510.59;5089836;28;20354;-77
2023/08/24 07:27:34;;;;;;;;;;;;;;;29.84;36.29;99516.34;5081712;28;20246;-77
2023/08/24 07:29:59;;;;;;;;;;;;;;;29.95;36.28;99515.00;5076028;28;19916;-80
2023/08/24 07:32:26;;;;;;;;;;;;;;;30.03;35.95;99506.94;5086644;28;20007;-78
2023/08/24 07:34:51;;;;;;;;;;;;;;;30.11;36.37;99510.84;5086789;28;19969;-80
2023/08/24 07:37:16;;;;;;;;;;;;;;;30.18;35.96;99508.50;5086844;28;19916;-79
2023/08/24 07:39:42;;;;;;;;;;;;;;;30.21;35.94;99504.38;5081967;28;20010;-78
2023/08/24 07:42:07;;;;;;;;;;;;;;;30.29;35.55;99504.44;5075870;28;19909;-79
2023/08/24 07:44:32;;;;;;;;;;;;;;;30.40;35.77;99513.16;5077331;28;20404;-79
2023/08/24 07:46:57;;;;;;;;;;;;;;;30.47;35.19;99507.28;5077241;28;19916;-81
2023/08/24 07:49:23;;;;;;;;;;;;;;;30.56;35.39;99506.25;5079580;28;20021;-79
2023/08/24 07:51:48;;;;;;;;;;;;;;;30.63;35.33;99508.56;5081930;28;20408;-78
2023/08/24 07:54:14;;;;;;;;;;;;;;;30.70;35.03;99506.19;5094175;28;19923;-79
2023/08/24 07:56:39;;;;;;;;;;;;;;;30.75;34.42;99511.53;5087976;28;20404;-78
2023/08/24 07:59:04;;;;;;;;;;;;;;;30.83;34.58;99513.50;5057195;28;20007;-79
2023/08/24 08:01:30;;;;;;;;;;;;;;;30.39;34.49;99429.00;5061038;28;19920;-80
2023/08/24 08:03:55;;;;;;;;;;;;;;;30.97;34.63;99516.13;5089713;28;20014;-79
2023/08/24 08:06:21;;;;;;;;;;;;;;;31.09;34.78;99512.81;5090852;28;20293;-78
2023/08/24 08:08:47;;;;;;;;;;;;;;;31.16;34.54;99515.91;5066405;28;20057;-78
2023/08/24 08:11:12;;;;;;;;;;;;;;;31.26;34.24;99518.38;5075632;28;19984;-78
2023/08/24 08:13:37;;;;;;;;;;;;;;;31.31;33.98;99518.25;5065989;28;20325;-80
2023/08/24 08:16:07;;;;;;;;;;;;;;;31.41;34.18;99519.88;5056551;28;19921;-78
2023/08/24 08:18:33;;;;;;;;;;;;;;;31.50;34.02;99513.31;5056380;28;19917;-78
2023/08/24 08:20:58;;;;;;;;;;;;;;;31.58;33.87;99514.47;5082227;28;19916;-78
2023/08/24 08:23:23;;;;;;;;;;;;;;;31.67;33.67;99514.47;5069300;28;19988;-80
2023/08/24 08:25:49;;;;;;;;;;;;;;;31.78;33.19;99502.16;5093763;28;19912;-78
2023/08/24 08:28:14;;;;;;;;;;;;;;;31.88;33.55;99502.66;5079253;28;20458;-77
2023/08/24 08:30:39;;;;;;;;;;;;;;;31.99;33.46;99499.63;5105785;28;19923;-78
2023/08/24 08:33:04;;;;;;;;;;;;;;;32.08;33.10;99500.44;5102986;28;19912;-78
2023/08/24 08:35:30;;;;;;;;;;;;;;;32.22;33.28;99503.81;5094049;28;19916;-77
2023/08/24 08:37:55;;;;;;;;;;;;;;;32.29;32.52;99500.63;5075961;28;20305;-77
2023/08/24 08:40:21;;;;;;;;;;;;;;;32.41;32.61;99496.09;5094155;28;19916;-79
2023/08/24 08:42:46;;;;;;;;;;;;;;;32.50;32.60;99496.88;5076191;28;19976;-79
2023/08/24 08:45:12;;;;;;;;;;;;;;;32.62;32.29;99485.28;5094116;28;19912;-77
2023/08/24 08:47:38;;;;;;;;;;;;;;;32.77;31.92;99484.81;5094148;28;19976;-77
2023/08/24 08:50:03;;;;;;;;;;;;;;;32.87;32.02;99483.66;5093821;28;19912;-77
2023/08/24 08:52:29;;;;;;;;;;;;;;;32.97;31.07;99477.03;5094977;28;20454;-78
2023/08/24 08:54:54;;;;;;;;;;;;;;;33.11;31.38;99485.81;5102310;28;19919;-78
2023/08/24 08:57:21;;;;;;;;;;;;;;;33.24;31.33;99473.84;5099005;28;19912;-78
2023/08/24 08:59:49;;;;;;;;;;;;;;;33.40;31.42;99474.09;5093381;28;20408;-78
2023/08/24 09:02:16;;;;;;;;;;;;;;;33.51;31.02;99480.03;5093431;28;19916;-78
2023/08/24 09:04:41;;;;;;;;;;;;;;;33.64;30.39;99479.75;5075417;28;19935;-78
2023/08/24 09:07:10;;;;;;;;;;;;;;;33.77;29.66;99469.69;5093499;28;20389;-78
2023/08/24 09:09:36;;;;;;;;;;;;;;;33.77;29.54;99470.47;5088833;28;19920;-80
2023/08/24 09:12:03;;;;;;;;;;;;;;;33.90;30.13;99468.66;5073151;28;19912;-78
2023/08/24 09:14:28;;;;;;;;;;;;;;;34.07;29.54;99465.75;5086901;28;19916;-79
2023/08/24 09:16:53;;;;;;;;;;;;;;;34.23;30.14;99465.16;5093196;28;20369;-78
2023/08/24 09:19:19;;;;;;;;;;;;;;;34.28;29.38;99453.97;5087896;28;19916;-78
2023/08/24 09:21:44;;;;;;;;;;;;;;;34.50;29.13;99453.63;5085168;28;19912;-77
2023/08/24 09:24:10;;;;;;;;;;;;;;;34.61;28.91;99451.25;5093259;28;19913;-79
2023/08/24 09:26:37;;;;;;;;;;;;;;;34.71;29.40;99454.34;5074108;28;20430;-79
2023/08/24 09:29:15;;;;;;;;;;;;;;;34.84;28.78;99443.41;5077641;28;19916;-79
2023/08/24 09:31:43;;;;;;;;;;;;;;;35.10;29.34;99443.09;5093187;28;19912;-80
2023/08/24 09:34:09;;;;;;;;;;;;;;;35.33;27.80;99444.25;5092564;28;20420;-79
2023/08/24 09:36:35;;;;;;;;;;;;;;;35.48;28.45;99440.00;5092966;28;19962;-78
2023/08/24 09:39:04;;;;;;;;;;;;;;;35.62;27.26;99437.69;5073869;28;19912;-78
2023/08/24 09:41:39;;;;;;;;;;;;;;;35.78;27.85;99435.03;5093170;28;19908;-77
2023/08/24 09:44:04;;;;;;;;;;;;;;;35.95;28.00;99437.50;5093087;28;19912;-80
2023/08/24 09:46:30;;;;;;;;;;;;;;;35.90;26.45;99441.31;5092892;28;19919;-79
2023/08/24 09:48:57;;;;;;;;;;;;;;;35.88;26.70;99435.34;5074901;28;19919;-79
2023/08/24 09:51:25;;;;;;;;;;;;;;;36.05;27.32;99427.97;5093054;28;19947;-79
2023/08/24 09:53:51;;;;;;;;;;;;;;;36.17;27.79;99425.94;5073125;28;19923;-79
2023/08/24 09:56:17;;;;;;;;;;;;;;;36.35;26.42;99420.16;5074527;28;19916;-78
2023/08/24 09:58:44;;;;;;;;;;;;;;;36.56;26.92;99424.28;5092856;28;19919;-78
2023/08/24 10:01:09;;;;;;;;;;;;;;;36.71;25.77;99421.91;5092447;28;19920;-78
2023/08/24 10:03:40;;;;;;;;;;;;;;;36.77;25.73;99415.00;5092443;28;20300;-79
2023/08/24 10:06:05;;;;;;;;;;;;;;;36.98;25.50;99407.25;5092340;28;19908;-80
2023/08/24 10:08:34;;;;;;;;;;;;;;;37.21;25.72;99402.69;5074487;28;19919;-78
2023/08/24 10:11:00;;;;;;;;;;;;;;;37.34;25.36;99397.09;5092303;28;20458;-80
2023/08/24 10:13:39;;;;;;;;;;;;;;;37.54;25.87;99399.50;5092442;28;19912;-77
2023/08/24 10:16:05;;;;;;;;;;;;;;;37.74;25.21;99388.53;5092358;28;20072;-79
2023/08/24 10:18:30;;;;;;;;;;;;;;;37.83;25.91;99386.34;5092471;28;19966;-79
2023/08/24 10:20:56;;;;;;;;;;;;;;;38.01;24.29;99397.75;5074103;28;19912;-78
2023/08/24 10:23:21;;;;;;;;;;;;;;;37.96;25.07;99378.75;5092390;28;20007;-79
2023/08/24 10:25:49;;;;;;;;;;;;;;;38.10;25.10;99387.28;5074023;28;19912;-80
2023/08/24 10:28:15;;;;;;;;;;;;;;;38.29;24.67;99375.44;5073956;28;19965;-80
2023/08/24 10:30:43;;;;;;;;;;;;;;;38.33;25.23;99373.53;5092547;28;19919;-80
2023/08/24 10:33:11;;;;;;;;;;;;;;;38.36;25.23;99370.84;5092270;28;19937;-77
2023/08/24 10:35:36;;;;;;;;;;;;;;;38.38;23.54;99364.94;5073853;28;19923;-79
2023/08/24 10:38:02;;;;;;;;;;;;;;;38.37;23.59;99366.91;5092137;28;19912;-78
2023/08/24 10:40:33;;;;;;;;;;;;;;;38.44;24.14;99360.72;5071329;28;20324;-79
2023/08/24 10:43:01;;;;;;;;;;;;;;;38.54;23.86;99365.63;5092009;28;19912;-79
2023/08/24 10:45:47;;;;;;;;;;;;;;;38.63;23.02;99363.44;5088604;28;19924;-79
2023/08/24 10:48:12;;;;;;;;;;;;;;;38.80;24.03;99355.81;5080501;28;19974;-78
2023/08/24 10:50:37;;;;;;;;;;;;;;;38.95;23.63;99347.38;5079089;28;19916;-77
2023/08/24 10:53:04;;;;;;;;;;;;;;;39.02;23.89;99349.44;5060922;28;19912;-78
2023/08/24 10:55:29;;;;;;;;;;;;;;;39.18;23.64;99346.53;5071622;28;19951;-77
2023/08/24 10:57:58;;;;;;;;;;;;;;;39.30;22.59;99341.56;5090024;28;20366;-80
2023/08/24 11:00:27;;;;;;;;;;;;;;;39.37;23.42;99332.56;5089956;28;20396;-80
2023/08/24 11:02:53;;;;;;;;;;;;;;;39.53;22.13;99335.97;5084190;28;20349;-77
2023/08/24 11:05:24;;;;;;;;;;;;;;;39.60;22.80;99319.47;5087362;28;19926;-78
2023/08/24 11:07:54;;;;;;;;;;;;;;;39.65;22.30;99316.38;5087460;28;19916;-78
2023/08/24 11:10:20;;;;;;;;;;;;;;;39.84;23.18;99312.63;5075299;28;19944;-79
2023/08/24 11:13:04;;;;;;;;;;;;;;;40.00;22.06;99320.72;5088889;28;20396;-80
2023/08/24 11:15:32;;;;;;;;;;;;;;;40.02;22.43;99310.84;5071242;28;20398;-78
2023/08/24 11:18:14;;;;;;;;;;;;;;;40.00;21.38;99304.91;5071256;28;19912;-78
2023/08/24 11:20:44;;;;;;;;;;;;;;;40.02;22.01;99308.09;5053338;28;19912;-79
2023/08/24 11:23:09;;;;;;;;;;;;;;;40.05;21.86;99289.94;5077997;28;19960;-79
2023/08/24 11:25:37;;;;;;;;;;;;;;;40.20;22.35;99294.44;5073488;28;20032;-79
2023/08/24 11:28:05;;;;;;;;;;;;;;;40.34;21.48;99288.22;5081943;28;19916;-79
2023/08/24 11:30:34;;;;;;;;;;;;;;;40.49;21.88;99291.94;5070701;28;19912;-79
2023/08/24 11:33:00;;;;;;;;;;;;;;;40.57;21.29;99282.50;5053144;28;20431;-77
2023/08/24 11:35:25;;;;;;;;;;;;;;;40.67;21.47;99275.44;5071103;28;19927;-78
2023/08/24 11:37:54;;;;;;;;;;;;;;;40.65;21.16;99267.50;5070977;28;19962;-80
2023/08/24 11:40:28;;;;;;;;;;;;;;;40.52;21.24;99260.72;5071571;28;20338;-79
2023/08/24 11:42:55;;;;;;;;;;;;;;;40.49;21.64;99255.94;5071464;28;19948;-78
2023/08/24 11:45:20;;;;;;;;;;;;;;;40.50;21.82;99257.53;5071678;28;19912;-79
2023/08/24 11:47:45;;;;;;;;;;;;;;;40.60;21.71;99245.75;5053997;28;19916;-78
2023/08/24 11:50:11;;;;;;;;;;;;;;;40.63;21.58;99256.84;5086192;28;19938;-80
2023/08/24 11:52:40;;;;;;;;;;;;;;;40.73;21.78;99238.69;5086616;28;19919;-78
2023/08/24 11:55:06;;;;;;;;;;;;;;;40.90;21.83;99242.78;5071523;28;19935;-79
2023/08/24 11:57:33;;;;;;;;;;;;;;;40.94;21.68;99236.09;5071340;28;19919;-79
2023/08/24 11:59:59;;;;;;;;;;;;;;;41.04;21.03;99236.53;5070982;28;20352;-78
2023/08/24 12:02:24;;;;;;;;;;;;;;;41.05;21.42;99233.34;5073462;28;19919;-78
2023/08/24 12:04:50;;;;;;;;;;;;;;;41.02;20.17;99231.38;5074499;28;20423;-79
2023/08/24 12:07:17;;;;;;;;;;;;;;;41.00;20.70;99230.16;5074444;28;19916;-79
2023/08/24 12:09:42;;;;;;;;;;;;;;;41.16;20.88;99227.84;5074650;28;19912;-78
2023/08/24 12:12:18;;;;;;;;;;;;;;;41.22;20.66;99224.34;5075507;28;20438;-79
2023/08/24 12:14:44;;;;;;;;;;;;;;;41.34;21.32;99222.38;5058292;28;19912;-77
2023/08/24 12:17:10;;;;;;;;;;;;;;;41.35;21.86;99219.22;5082220;28;19916;-79
2023/08/24 12:19:35;;;;;;;;;;;;;;;41.41;20.84;99211.31;5081188;28;19923;-80
2023/08/24 12:22:00;;;;;;;;;;;;;;;41.35;21.86;99202.59;5074399;28;20400;-80
2023/08/24 12:24:25;;;;;;;;;;;;;;;41.35;20.80;99202.59;5056719;28;20333;-79
2023/08/24 12:27:01;;;;;;;;;;;;;;;41.34;21.12;99203.78;5074437;28;19996;-77
2023/08/24 12:29:27;;;;;;;;;;;;;;;41.31;20.27;99198.25;5074524;28;19913;-79
2023/08/24 12:31:56;;;;;;;;;;;;;;;41.29;21.13;99190.31;5074717;28;19920;-78
2023/08/24 12:34:21;;;;;;;;;;;;;;;41.30;21.37;99193.88;5074565;28;19912;-80
2023/08/24 12:36:46;;;;;;;;;;;;;;;41.30;21.07;99189.13;5074245;28;19923;-79
2023/08/24 12:39:15;;;;;;;;;;;;;;;41.14;21.37;99180.38;5074144;28;19939;-78
2023/08/24 12:41:40;;;;;;;;;;;;;;;41.12;21.22;99171.66;5055907;28;19912;-79